sensor_id;sensor_type;location;lat;lon;timestamp;temperature;humidity
2723;DHT22;1369;53.216;10.396;2022-10-15T00:01:40;14.80;99.90
2723;DHT22;1369;53.216;10.396;2022-10-15T00:04:05;14.70;99.90
2723;DHT22;1369;53.216;10.396;2022-10-15T00:06:31;14.80;99.90
2723;DHT22;1369;53.216;10.396;2022-10-15T00:08:56;14.80;99.90
2723;DHT22;1369;53.216;10.396;2022-10-15T00:11:24;14.80;99.90
2723;DHT22;1369;53.216;10.396;2022-10-15T00:13:57;14.70;99.90
2723;DHT22;1369;53.216;10.396;2022-10-15T00:16:26;14.70;99.90
2723;DHT22;1369;53.216;10.396;2022-10-15T00:18:55;14.70;99.90
2723;DHT22;1369;53.216;10.396;2022-10-15T00:21:21;14.70;99.90
2723;DHT22;1369;53.216;10.396;2022-10-15T00:23:47;14.70;99.90
2723;DHT22;1369;53.216;10.396;2022-10-15T00:26:15;14.70;99.90
2723;DHT22;1369;53.216;10.396;2022-10-15T00:28:45;14.70;99.90
2723;DHT22;1369;53.216;10.396;2022-10-15T00:31:13;14.70;99.90
2723;DHT22;1369;53.216;10.396;2022-10-15T00:33:40;14.70;99.90
2723;DHT22;1369;53.216;10.396;2022-10-15T00:36:08;14.70;99.90
2723;DHT22;1369;53.216;10.396;2022-10-15T00:38:35;14.70;99.90
2723;DHT22;1369;53.216;10.396;2022-10-15T00:41:01;14.70;99.90
2723;DHT22;1369;53.216;10.396;2022-10-15T00:48:47;14.70;99.90
2723;DHT22;1369;53.216;10.396;2022-10-15T00:51:16;14.70;99.90
2723;DHT22;1369;53.216;10.396;2022-10-15T00:53:42;14.80;99.90
2723;DHT22;1369;53.216;10.396;2022-10-15T00:56:08;14.80;99.90
2723;DHT22;1369;53.216;10.396;2022-10-15T00:58:34;14.80;99.90
2723;DHT22;1369;53.216;10.396;2022-10-15T01:01:00;14.80;99.90
2723;DHT22;1369;53.216;10.396;2022-10-15T01:03:26;14.80;99.90
2723;DHT22;1369;53.216;10.396;2022-10-15T01:05:52;14.80;99.90
2723;DHT22;1369;53.216;10.396;2022-10-15T01:08:18;14.80;99.90
2723;DHT22;1369;53.216;10.396;2022-10-15T01:11:01;14.80;99.90
2723;DHT22;1369;53.216;10.396;2022-10-15T01:13:41;14.80;99.90
2723;DHT22;1369;53.216;10.396;2022-10-15T01:16:13;14.80;99.90
2723;DHT22;1369;53.216;10.396;2022-10-15T01:18:55;14.80;99.90
2723;DHT22;1369;53.216;10.396;2022-10-15T01:21:38;14.80;99.90
2723;DHT22;1369;53.216;10.396;2022-10-15T01:30:02;14.80;99.90
2723;DHT22;1369;53.216;10.396;2022-10-15T01:32:36;14.80;99.90
2723;DHT22;1369;53.216;10.396;2022-10-15T01:35:28;14.80;99.90
2723;DHT22;1369;53.216;10.396;2022-10-15T01:38:10;14.80;99.90
2723;DHT22;1369;53.216;10.396;2022-10-15T01:41:00;14.80;99.90
2723;DHT22;1369;53.216;10.396;2022-10-15T01:43:47;14.80;99.90
2723;DHT22;1369;53.216;10.396;2022-10-15T01:46:19;14.90;99.90
2723;DHT22;1369;53.216;10.396;2022-10-15T01:48:48;14.90;99.90
2723;DHT22;1369;53.216;10.396;2022-10-15T01:51:15;14.90;99.90
2723;DHT22;1369;53.216;10.396;2022-10-15T01:53:43;14.90;99.90
2723;DHT22;1369;53.216;10.396;2022-10-15T01:56:13;14.90;99.90
2723;DHT22;1369;53.216;10.396;2022-10-15T01:58:41;14.90;99.90
2723;DHT22;1369;53.216;10.396;2022-10-15T02:01:07;14.90;99.90
2723;DHT22;1369;53.216;10.396;2022-10-15T02:03:48;14.90;99.90
2723;DHT22;1369;53.216;10.396;2022-10-15T02:06:36;14.90;99.90
2723;DHT22;1369;53.216;10.396;2022-10-15T02:11:59;14.90;99.90
2723;DHT22;1369;53.216;10.396;2022-10-15T02:14:37;14.80;99.90
2723;DHT22;1369;53.216;10.396;2022-10-15T02:17:08;14.80;99.90
2723;DHT22;1369;53.216;10.396;2022-10-15T02:19:53;14.80;99.90
2723;DHT22;1369;53.216;10.396;2022-10-15T02:22:45;14.70;99.90
2723;DHT22;1369;53.216;10.396;2022-10-15T02:25:17;14.70;99.90
2723;DHT22;1369;53.216;10.396;2022-10-15T02:27:44;14.60;99.90
2723;DHT22;1369;53.216;10.396;2022-10-15T02:30:12;14.60;99.90
2723;DHT22;1369;53.216;10.396;2022-10-15T02:32:39;14.60;99.90
2723;DHT22;1369;53.216;10.396;2022-10-15T02:35:07;14.50;99.90
2723;DHT22;1369;53.216;10.396;2022-10-15T02:37:34;14.50;99.90
2723;DHT22;1369;53.216;10.396;2022-10-15T02:39:59;14.50;99.90
2723;DHT22;1369;53.216;10.396;2022-10-15T02:42:25;14.40;99.90
2723;DHT22;1369;53.216;10.396;2022-10-15T02:44:51;14.40;99.90
2723;DHT22;1369;53.216;10.396;2022-10-15T02:47:16;14.40;99.90
2723;DHT22;1369;53.216;10.396;2022-10-15T02:49:42;14.40;99.90
2723;DHT22;1369;53.216;10.396;2022-10-15T02:52:07;14.40;99.90
2723;DHT22;1369;53.216;10.396;2022-10-15T02:54:33;14.40;99.90
2723;DHT22;1369;53.216;10.396;2022-10-15T02:56:58;14.40;99.90
2723;DHT22;1369;53.216;10.396;2022-10-15T02:59:24;14.40;99.90
2723;DHT22;1369;53.216;10.396;2022-10-15T03:01:50;14.40;99.90
2723;DHT22;1369;53.216;10.396;2022-10-15T03:04:15;14.40;99.90
2723;DHT22;1369;53.216;10.396;2022-10-15T03:06:41;14.40;99.90
2723;DHT22;1369;53.216;10.396;2022-10-15T03:09:06;14.40;99.90
2723;DHT22;1369;53.216;10.396;2022-10-15T03:11:32;14.30;99.90
2723;DHT22;1369;53.216;10.396;2022-10-15T03:13:57;14.30;99.90
2723;DHT22;1369;53.216;10.396;2022-10-15T03:16:23;14.20;99.90
2723;DHT22;1369;53.216;10.396;2022-10-15T03:18:48;14.10;99.90
2723;DHT22;1369;53.216;10.396;2022-10-15T03:21:14;14.00;99.90
2723;DHT22;1369;53.216;10.396;2022-10-15T03:23:39;13.90;99.90
2723;DHT22;1369;53.216;10.396;2022-10-15T03:26:05;13.70;99.90
2723;DHT22;1369;53.216;10.396;2022-10-15T03:28:31;13.70;99.90
2723;DHT22;1369;53.216;10.396;2022-10-15T03:30:56;13.60;99.90
2723;DHT22;1369;53.216;10.396;2022-10-15T03:33:22;13.50;99.90
2723;DHT22;1369;53.216;10.396;2022-10-15T03:35:47;13.40;99.90
2723;DHT22;1369;53.216;10.396;2022-10-15T03:38:13;13.20;99.90
2723;DHT22;1369;53.216;10.396;2022-10-15T03:40:38;13.10;99.90
2723;DHT22;1369;53.216;10.396;2022-10-15T03:43:04;13.00;99.90
2723;DHT22;1369;53.216;10.396;2022-10-15T03:45:29;12.90;99.90
2723;DHT22;1369;53.216;10.396;2022-10-15T03:47:55;12.80;99.90
2723;DHT22;1369;53.216;10.396;2022-10-15T03:50:20;12.70;99.90
2723;DHT22;1369;53.216;10.396;2022-10-15T03:52:46;12.60;99.90
2723;DHT22;1369;53.216;10.396;2022-10-15T03:55:11;12.60;99.90
2723;DHT22;1369;53.216;10.396;2022-10-15T03:57:37;12.50;99.90
2723;DHT22;1369;53.216;10.396;2022-10-15T04:00:05;12.40;99.90
2723;DHT22;1369;53.216;10.396;2022-10-15T04:02:31;12.30;99.90
2723;DHT22;1369;53.216;10.396;2022-10-15T04:04:57;12.30;99.90
2723;DHT22;1369;53.216;10.396;2022-10-15T04:07:23;12.30;99.90
2723;DHT22;1369;53.216;10.396;2022-10-15T04:09:48;12.20;99.90
2723;DHT22;1369;53.216;10.396;2022-10-15T04:12:15;12.20;99.90
2723;DHT22;1369;53.216;10.396;2022-10-15T04:14:40;12.10;99.90
2723;DHT22;1369;53.216;10.396;2022-10-15T04:17:06;12.10;99.90
2723;DHT22;1369;53.216;10.396;2022-10-15T04:19:32;12.10;99.90
2723;DHT22;1369;53.216;10.396;2022-10-15T04:21:58;12.00;99.90
2723;DHT22;1369;53.216;10.396;2022-10-15T04:24:23;12.00;99.90
2723;DHT22;1369;53.216;10.396;2022-10-15T04:26:49;12.00;99.90
2723;DHT22;1369;53.216;10.396;2022-10-15T04:29:14;11.90;99.90
2723;DHT22;1369;53.216;10.396;2022-10-15T04:31:40;11.90;99.90
2723;DHT22;1369;53.216;10.396;2022-10-15T04:34:06;11.80;99.90
2723;DHT22;1369;53.216;10.396;2022-10-15T04:36:32;11.70;99.90
2723;DHT22;1369;53.216;10.396;2022-10-15T04:38:57;11.70;99.90
2723;DHT22;1369;53.216;10.396;2022-10-15T04:41:23;11.70;99.90
2723;DHT22;1369;53.216;10.396;2022-10-15T04:43:48;11.70;99.90
2723;DHT22;1369;53.216;10.396;2022-10-15T04:46:14;11.70;99.90
2723;DHT22;1369;53.216;10.396;2022-10-15T04:48:39;11.60;99.90
2723;DHT22;1369;53.216;10.396;2022-10-15T04:51:06;11.60;99.90
2723;DHT22;1369;53.216;10.396;2022-10-15T04:53:32;11.60;99.90
2723;DHT22;1369;53.216;10.396;2022-10-15T04:56:03;11.60;99.90
2723;DHT22;1369;53.216;10.396;2022-10-15T04:58:30;11.70;99.90
2723;DHT22;1369;53.216;10.396;2022-10-15T05:01:02;11.70;99.90
2723;DHT22;1369;53.216;10.396;2022-10-15T05:03:29;11.80;99.90
2723;DHT22;1369;53.216;10.396;2022-10-15T05:05:59;11.90;99.90
2723;DHT22;1369;53.216;10.396;2022-10-15T05:08:26;12.00;99.90
2723;DHT22;1369;53.216;10.396;2022-10-15T05:10:51;12.00;99.90
2723;DHT22;1369;53.216;10.396;2022-10-15T05:13:17;12.10;99.90
2723;DHT22;1369;53.216;10.396;2022-10-15T05:15:42;12.10;99.90
2723;DHT22;1369;53.216;10.396;2022-10-15T05:18:08;12.20;99.90
2723;DHT22;1369;53.216;10.396;2022-10-15T05:20:33;12.20;99.90
2723;DHT22;1369;53.216;10.396;2022-10-15T05:22:59;12.20;99.90
2723;DHT22;1369;53.216;10.396;2022-10-15T05:25:24;12.20;99.90
2723;DHT22;1369;53.216;10.396;2022-10-15T05:27:50;12.20;99.90
2723;DHT22;1369;53.216;10.396;2022-10-15T05:30:15;12.30;99.90
2723;DHT22;1369;53.216;10.396;2022-10-15T05:32:41;12.30;99.90
2723;DHT22;1369;53.216;10.396;2022-10-15T05:35:06;12.40;99.90
2723;DHT22;1369;53.216;10.396;2022-10-15T05:37:33;12.40;99.90
2723;DHT22;1369;53.216;10.396;2022-10-15T05:39:58;12.40;99.90
2723;DHT22;1369;53.216;10.396;2022-10-15T05:42:23;12.40;99.90
2723;DHT22;1369;53.216;10.396;2022-10-15T05:44:49;12.40;99.90
2723;DHT22;1369;53.216;10.396;2022-10-15T05:47:15;12.40;99.90
2723;DHT22;1369;53.216;10.396;2022-10-15T05:49:40;12.40;99.90
2723;DHT22;1369;53.216;10.396;2022-10-15T05:52:05;12.40;99.90
2723;DHT22;1369;53.216;10.396;2022-10-15T05:54:31;12.40;99.90
2723;DHT22;1369;53.216;10.396;2022-10-15T05:56:56;12.40;99.90
2723;DHT22;1369;53.216;10.396;2022-10-15T05:59:22;12.50;99.90
2723;DHT22;1369;53.216;10.396;2022-10-15T06:01:47;12.50;99.90
2723;DHT22;1369;53.216;10.396;2022-10-15T06:04:13;12.50;99.90
2723;DHT22;1369;53.216;10.396;2022-10-15T06:06:40;12.60;99.90
2723;DHT22;1369;53.216;10.396;2022-10-15T06:09:05;12.60;99.90
2723;DHT22;1369;53.216;10.396;2022-10-15T06:11:31;12.50;99.90
2723;DHT22;1369;53.216;10.396;2022-10-15T06:13:56;12.50;99.90
2723;DHT22;1369;53.216;10.396;2022-10-15T06:16:22;12.40;99.90
2723;DHT22;1369;53.216;10.396;2022-10-15T06:18:47;12.30;99.90
2723;DHT22;1369;53.216;10.396;2022-10-15T06:21:13;12.20;99.90
2723;DHT22;1369;53.216;10.396;2022-10-15T06:23:38;12.20;99.90
2723;DHT22;1369;53.216;10.396;2022-10-15T06:26:05;12.30;99.90
2723;DHT22;1369;53.216;10.396;2022-10-15T06:28:31;12.40;99.90
2723;DHT22;1369;53.216;10.396;2022-10-15T06:31:01;12.50;99.90
2723;DHT22;1369;53.216;10.396;2022-10-15T06:33:27;12.60;99.90
2723;DHT22;1369;53.216;10.396;2022-10-15T06:35:53;12.60;99.90
2723;DHT22;1369;53.216;10.396;2022-10-15T06:38:19;12.80;99.90
2723;DHT22;1369;53.216;10.396;2022-10-15T06:40:44;12.80;99.90
2723;DHT22;1369;53.216;10.396;2022-10-15T06:43:10;12.90;99.90
2723;DHT22;1369;53.216;10.396;2022-10-15T06:45:39;12.90;99.90
2723;DHT22;1369;53.216;10.396;2022-10-15T06:48:06;12.90;99.90
2723;DHT22;1369;53.216;10.396;2022-10-15T06:50:32;13.00;99.90
2723;DHT22;1369;53.216;10.396;2022-10-15T06:52:58;13.10;99.90
2723;DHT22;1369;53.216;10.396;2022-10-15T06:55:24;13.20;99.90
2723;DHT22;1369;53.216;10.396;2022-10-15T06:57:49;13.30;99.90
2723;DHT22;1369;53.216;10.396;2022-10-15T07:00:16;13.30;99.90
2723;DHT22;1369;53.216;10.396;2022-10-15T07:02:42;13.30;99.90
2723;DHT22;1369;53.216;10.396;2022-10-15T07:05:08;13.40;99.90
2723;DHT22;1369;53.216;10.396;2022-10-15T07:07:34;13.40;99.90
2723;DHT22;1369;53.216;10.396;2022-10-15T07:09:59;13.40;99.90
2723;DHT22;1369;53.216;10.396;2022-10-15T07:12:25;13.50;99.90
2723;DHT22;1369;53.216;10.396;2022-10-15T07:14:50;13.60;99.90
2723;DHT22;1369;53.216;10.396;2022-10-15T07:17:16;13.60;99.90
2723;DHT22;1369;53.216;10.396;2022-10-15T07:19:42;13.60;99.90
2723;DHT22;1369;53.216;10.396;2022-10-15T07:22:08;13.60;99.90
2723;DHT22;1369;53.216;10.396;2022-10-15T07:24:34;13.70;99.90
2723;DHT22;1369;53.216;10.396;2022-10-15T07:26:59;13.70;99.90
2723;DHT22;1369;53.216;10.396;2022-10-15T07:29:25;13.70;99.90
2723;DHT22;1369;53.216;10.396;2022-10-15T07:31:50;13.70;99.90
2723;DHT22;1369;53.216;10.396;2022-10-15T07:34:16;13.70;99.90
2723;DHT22;1369;53.216;10.396;2022-10-15T07:36:41;13.80;99.90
2723;DHT22;1369;53.216;10.396;2022-10-15T07:39:08;13.90;99.90
2723;DHT22;1369;53.216;10.396;2022-10-15T07:41:34;14.00;99.90
2723;DHT22;1369;53.216;10.396;2022-10-15T07:43:59;14.10;99.90
2723;DHT22;1369;53.216;10.396;2022-10-15T07:46:25;14.20;99.90
2723;DHT22;1369;53.216;10.396;2022-10-15T07:48:51;14.40;99.90
2723;DHT22;1369;53.216;10.396;2022-10-15T07:51:16;14.50;99.90
2723;DHT22;1369;53.216;10.396;2022-10-15T07:53:42;14.80;99.90
2723;DHT22;1369;53.216;10.396;2022-10-15T07:56:10;15.10;99.90
2723;DHT22;1369;53.216;10.396;2022-10-15T07:58:37;15.30;99.90
2723;DHT22;1369;53.216;10.396;2022-10-15T08:01:08;15.40;99.90
2723;DHT22;1369;53.216;10.396;2022-10-15T08:03:35;15.40;99.90
2723;DHT22;1369;53.216;10.396;2022-10-15T08:06:04;15.40;99.90
2723;DHT22;1369;53.216;10.396;2022-10-15T08:08:30;15.30;99.90
2723;DHT22;1369;53.216;10.396;2022-10-15T08:10:57;15.30;99.90
2723;DHT22;1369;53.216;10.396;2022-10-15T08:13:23;15.40;99.90
2723;DHT22;1369;53.216;10.396;2022-10-15T08:15:49;15.60;99.90
2723;DHT22;1369;53.216;10.396;2022-10-15T08:18:14;15.70;99.90
2723;DHT22;1369;53.216;10.396;2022-10-15T08:20:40;15.80;99.90
2723;DHT22;1369;53.216;10.396;2022-10-15T08:23:13;15.70;99.90
2723;DHT22;1369;53.216;10.396;2022-10-15T08:25:39;15.80;99.90
2723;DHT22;1369;53.216;10.396;2022-10-15T08:28:05;15.90;99.90
2723;DHT22;1369;53.216;10.396;2022-10-15T08:30:30;16.00;99.90
2723;DHT22;1369;53.216;10.396;2022-10-15T08:32:56;16.00;99.90
2723;DHT22;1369;53.216;10.396;2022-10-15T08:35:22;15.90;99.90
2723;DHT22;1369;53.216;10.396;2022-10-15T08:37:47;16.00;99.90
2723;DHT22;1369;53.216;10.396;2022-10-15T08:40:14;16.00;99.90
2723;DHT22;1369;53.216;10.396;2022-10-15T08:42:42;16.00;99.90
2723;DHT22;1369;53.216;10.396;2022-10-15T08:45:18;16.00;99.90
2723;DHT22;1369;53.216;10.396;2022-10-15T08:47:57;16.00;99.90
2723;DHT22;1369;53.216;10.396;2022-10-15T08:50:32;15.80;99.90
2723;DHT22;1369;53.216;10.396;2022-10-15T08:52:59;15.70;99.90
2723;DHT22;1369;53.216;10.396;2022-10-15T08:55:34;15.70;99.90
2723;DHT22;1369;53.216;10.396;2022-10-15T08:58:40;15.90;99.90
2723;DHT22;1369;53.216;10.396;2022-10-15T09:06:36;16.80;99.90
2723;DHT22;1369;53.216;10.396;2022-10-15T09:12:05;17.30;99.90
2723;DHT22;1369;53.216;10.396;2022-10-15T09:14:38;17.50;99.90
2723;DHT22;1369;53.216;10.396;2022-10-15T09:17:16;17.30;99.90
2723;DHT22;1369;53.216;10.396;2022-10-15T09:19:44;17.10;99.90
2723;DHT22;1369;53.216;10.396;2022-10-15T09:22:14;17.00;99.90
2723;DHT22;1369;53.216;10.396;2022-10-15T09:24:41;17.10;99.90
2723;DHT22;1369;53.216;10.396;2022-10-15T09:30:11;17.40;99.90
2723;DHT22;1369;53.216;10.396;2022-10-15T09:32:49;17.60;99.90
2723;DHT22;1369;53.216;10.396;2022-10-15T09:35:26;18.00;99.90
2723;DHT22;1369;53.216;10.396;2022-10-15T09:41:06;18.60;99.90
2723;DHT22;1369;53.216;10.396;2022-10-15T09:43:41;18.40;99.90
2723;DHT22;1369;53.216;10.396;2022-10-15T09:46:10;18.70;99.90
2723;DHT22;1369;53.216;10.396;2022-10-15T09:48:43;18.80;99.90
2723;DHT22;1369;53.216;10.396;2022-10-15T09:51:24;19.00;99.90
2723;DHT22;1369;53.216;10.396;2022-10-15T09:53:58;18.80;99.90
2723;DHT22;1369;53.216;10.396;2022-10-15T09:56:33;18.90;99.90
2723;DHT22;1369;53.216;10.396;2022-10-15T09:59:00;18.80;99.90
2723;DHT22;1369;53.216;10.396;2022-10-15T10:01:28;18.70;99.90
2723;DHT22;1369;53.216;10.396;2022-10-15T10:04:17;18.70;99.90
2723;DHT22;1369;53.216;10.396;2022-10-15T10:06:49;18.60;99.90
2723;DHT22;1369;53.216;10.396;2022-10-15T10:09:22;18.60;99.90
2723;DHT22;1369;53.216;10.396;2022-10-15T10:11:51;18.70;99.90
2723;DHT22;1369;53.216;10.396;2022-10-15T10:14:35;18.80;99.90
2723;DHT22;1369;53.216;10.396;2022-10-15T10:19:32;18.60;99.90
2723;DHT22;1369;53.216;10.396;2022-10-15T10:22:17;18.50;99.90
2723;DHT22;1369;53.216;10.396;2022-10-15T10:24:44;18.50;99.90
2723;DHT22;1369;53.216;10.396;2022-10-15T10:27:24;18.40;99.90
2723;DHT22;1369;53.216;10.396;2022-10-15T10:29:55;18.10;99.90
2723;DHT22;1369;53.216;10.396;2022-10-15T10:32:27;18.00;99.90
2723;DHT22;1369;53.216;10.396;2022-10-15T10:34:54;18.00;99.90
2723;DHT22;1369;53.216;10.396;2022-10-15T10:37:20;18.10;99.90
2723;DHT22;1369;53.216;10.396;2022-10-15T10:39:51;18.30;99.90
2723;DHT22;1369;53.216;10.396;2022-10-15T10:44:44;18.40;99.90
2723;DHT22;1369;53.216;10.396;2022-10-15T10:47:15;18.50;99.90
2723;DHT22;1369;53.216;10.396;2022-10-15T10:49:49;18.20;99.90
2723;DHT22;1369;53.216;10.396;2022-10-15T10:52:26;18.00;99.90
2723;DHT22;1369;53.216;10.396;2022-10-15T10:55:11;18.00;99.90
2723;DHT22;1369;53.216;10.396;2022-10-15T10:57:42;18.20;99.90
2723;DHT22;1369;53.216;10.396;2022-10-15T11:00:14;18.30;99.90
2723;DHT22;1369;53.216;10.396;2022-10-15T11:02:41;18.40;99.90
2723;DHT22;1369;53.216;10.396;2022-10-15T11:05:10;18.50;99.90
2723;DHT22;1369;53.216;10.396;2022-10-15T11:07:52;18.60;99.90
2723;DHT22;1369;53.216;10.396;2022-10-15T11:15:51;19.00;99.90
2723;DHT22;1369;53.216;10.396;2022-10-15T11:24:22;18.80;99.90
2723;DHT22;1369;53.216;10.396;2022-10-15T11:34:59;19.00;99.90
2723;DHT22;1369;53.216;10.396;2022-10-15T11:40:46;18.90;99.90
2723;DHT22;1369;53.216;10.396;2022-10-15T11:43:00;19.00;99.90
2723;DHT22;1369;53.216;10.396;2022-10-15T11:48:57;19.10;99.90
2723;DHT22;1369;53.216;10.396;2022-10-15T11:51:33;19.10;99.90
2723;DHT22;1369;53.216;10.396;2022-10-15T11:54:20;19.10;99.90
2723;DHT22;1369;53.216;10.396;2022-10-15T11:56:49;19.20;99.90
2723;DHT22;1369;53.216;10.396;2022-10-15T12:02:21;19.30;99.90
2723;DHT22;1369;53.216;10.396;2022-10-15T12:05:17;19.10;99.90
2723;DHT22;1369;53.216;10.396;2022-10-15T12:07:47;18.80;99.90
2723;DHT22;1369;53.216;10.396;2022-10-15T12:10:28;18.70;99.90
2723;DHT22;1369;53.216;10.396;2022-10-15T12:24:04;19.30;99.90
2723;DHT22;1369;53.216;10.396;2022-10-15T12:26:35;19.40;99.90
2723;DHT22;1369;53.216;10.396;2022-10-15T12:29:05;19.40;99.90
2723;DHT22;1369;53.216;10.396;2022-10-15T12:31:45;19.40;99.90
2723;DHT22;1369;53.216;10.396;2022-10-15T12:34:38;19.40;99.90
2723;DHT22;1369;53.216;10.396;2022-10-15T12:37:26;19.40;99.90
2723;DHT22;1369;53.216;10.396;2022-10-15T12:39:58;19.40;99.90
2723;DHT22;1369;53.216;10.396;2022-10-15T12:44:56;19.30;99.90
2723;DHT22;1369;53.216;10.396;2022-10-15T12:47:52;19.30;99.90
2723;DHT22;1369;53.216;10.396;2022-10-15T12:50:26;19.30;99.90
2723;DHT22;1369;53.216;10.396;2022-10-15T12:55:38;19.20;99.90
2723;DHT22;1369;53.216;10.396;2022-10-15T12:58:30;19.20;99.90
2723;DHT22;1369;53.216;10.396;2022-10-15T13:00:50;19.30;99.90
2723;DHT22;1369;53.216;10.396;2022-10-15T13:03:24;19.50;99.90
2723;DHT22;1369;53.216;10.396;2022-10-15T13:05:51;19.60;99.90
2723;DHT22;1369;53.216;10.396;2022-10-15T13:08:24;19.60;99.90
2723;DHT22;1369;53.216;10.396;2022-10-15T13:10:58;19.50;99.90
2723;DHT22;1369;53.216;10.396;2022-10-15T13:13:30;19.30;99.90
2723;DHT22;1369;53.216;10.396;2022-10-15T13:16:01;19.10;99.90
2723;DHT22;1369;53.216;10.396;2022-10-15T13:18:31;18.90;99.90
2723;DHT22;1369;53.216;10.396;2022-10-15T13:20:57;18.80;99.90
2723;DHT22;1369;53.216;10.396;2022-10-15T13:23:29;18.70;99.90
2723;DHT22;1369;53.216;10.396;2022-10-15T13:28:47;18.60;99.90
2723;DHT22;1369;53.216;10.396;2022-10-15T13:31:20;18.70;99.90
2723;DHT22;1369;53.216;10.396;2022-10-15T13:33:50;18.70;99.90
2723;DHT22;1369;53.216;10.396;2022-10-15T13:36:23;18.80;99.90
2723;DHT22;1369;53.216;10.396;2022-10-15T13:39:05;18.80;99.90
2723;DHT22;1369;53.216;10.396;2022-10-15T13:41:33;18.80;99.90
2723;DHT22;1369;53.216;10.396;2022-10-15T13:44:00;18.90;99.90
2723;DHT22;1369;53.216;10.396;2022-10-15T13:46:30;18.90;99.90
2723;DHT22;1369;53.216;10.396;2022-10-15T13:48:58;18.90;99.90
2723;DHT22;1369;53.216;10.396;2022-10-15T13:51:29;19.00;99.90
2723;DHT22;1369;53.216;10.396;2022-10-15T13:53:58;19.00;99.90
2723;DHT22;1369;53.216;10.396;2022-10-15T13:56:29;19.10;99.90
2723;DHT22;1369;53.216;10.396;2022-10-15T13:58:55;19.10;99.90
2723;DHT22;1369;53.216;10.396;2022-10-15T14:01:23;19.10;99.90
2723;DHT22;1369;53.216;10.396;2022-10-15T14:03:57;18.90;99.90
2723;DHT22;1369;53.216;10.396;2022-10-15T14:06:25;18.90;99.90
2723;DHT22;1369;53.216;10.396;2022-10-15T14:08:57;18.90;99.90
2723;DHT22;1369;53.216;10.396;2022-10-15T14:11:23;18.90;99.90
2723;DHT22;1369;53.216;10.396;2022-10-15T14:13:51;18.90;99.90
2723;DHT22;1369;53.216;10.396;2022-10-15T14:16:20;18.80;99.90
2723;DHT22;1369;53.216;10.396;2022-10-15T14:18:49;18.90;99.90
2723;DHT22;1369;53.216;10.396;2022-10-15T14:21:23;18.80;99.90
2723;DHT22;1369;53.216;10.396;2022-10-15T14:24:11;18.70;99.90
2723;DHT22;1369;53.216;10.396;2022-10-15T14:26:39;18.60;99.90
2723;DHT22;1369;53.216;10.396;2022-10-15T14:29:05;18.70;99.90
2723;DHT22;1369;53.216;10.396;2022-10-15T14:31:45;18.70;99.90
2723;DHT22;1369;53.216;10.396;2022-10-15T14:34:36;18.70;99.90
2723;DHT22;1369;53.216;10.396;2022-10-15T14:37:28;18.60;99.90
2723;DHT22;1369;53.216;10.396;2022-10-15T14:42:40;18.50;99.90
2723;DHT22;1369;53.216;10.396;2022-10-15T14:45:12;18.50;99.90
2723;DHT22;1369;53.216;10.396;2022-10-15T14:47:38;18.50;99.90
2723;DHT22;1369;53.216;10.396;2022-10-15T14:50:04;18.50;99.90
2723;DHT22;1369;53.216;10.396;2022-10-15T14:52:30;18.50;99.90
2723;DHT22;1369;53.216;10.396;2022-10-15T14:55:27;18.40;99.90
2723;DHT22;1369;53.216;10.396;2022-10-15T14:57:55;18.20;99.90
2723;DHT22;1369;53.216;10.396;2022-10-15T15:00:32;18.10;99.90
2723;DHT22;1369;53.216;10.396;2022-10-15T15:03:01;18.00;99.90
2723;DHT22;1369;53.216;10.396;2022-10-15T15:05:28;17.90;99.90
2723;DHT22;1369;53.216;10.396;2022-10-15T15:07:55;17.80;99.90
2723;DHT22;1369;53.216;10.396;2022-10-15T15:10:23;17.80;99.90
2723;DHT22;1369;53.216;10.396;2022-10-15T15:12:53;17.80;99.90
2723;DHT22;1369;53.216;10.396;2022-10-15T15:15:21;17.80;99.90
2723;DHT22;1369;53.216;10.396;2022-10-15T15:17:47;17.80;99.90
2723;DHT22;1369;53.216;10.396;2022-10-15T15:20:14;17.80;99.90
2723;DHT22;1369;53.216;10.396;2022-10-15T15:22:40;17.80;99.90
2723;DHT22;1369;53.216;10.396;2022-10-15T15:25:14;17.80;99.90
2723;DHT22;1369;53.216;10.396;2022-10-15T15:27:41;17.80;99.90
2723;DHT22;1369;53.216;10.396;2022-10-15T15:30:13;17.80;99.90
2723;DHT22;1369;53.216;10.396;2022-10-15T15:32:39;17.70;99.90
2723;DHT22;1369;53.216;10.396;2022-10-15T15:37:39;17.60;99.90
2723;DHT22;1369;53.216;10.396;2022-10-15T15:40:05;17.60;99.90
2723;DHT22;1369;53.216;10.396;2022-10-15T15:42:31;17.60;99.90
2723;DHT22;1369;53.216;10.396;2022-10-15T15:44:57;17.70;99.90
2723;DHT22;1369;53.216;10.396;2022-10-15T15:47:23;17.70;99.90
2723;DHT22;1369;53.216;10.396;2022-10-15T15:49:48;17.70;99.90
2723;DHT22;1369;53.216;10.396;2022-10-15T15:52:14;17.70;99.90
2723;DHT22;1369;53.216;10.396;2022-10-15T15:54:43;17.60;99.90
2723;DHT22;1369;53.216;10.396;2022-10-15T15:57:10;17.50;99.90
2723;DHT22;1369;53.216;10.396;2022-10-15T15:59:36;17.40;99.90
2723;DHT22;1369;53.216;10.396;2022-10-15T16:02:01;17.30;99.90
2723;DHT22;1369;53.216;10.396;2022-10-15T16:04:27;17.20;99.90
2723;DHT22;1369;53.216;10.396;2022-10-15T16:06:52;17.20;99.90
2723;DHT22;1369;53.216;10.396;2022-10-15T16:09:18;17.10;99.90
2723;DHT22;1369;53.216;10.396;2022-10-15T16:11:46;17.10;99.90
2723;DHT22;1369;53.216;10.396;2022-10-15T16:14:12;17.00;99.90
2723;DHT22;1369;53.216;10.396;2022-10-15T16:16:38;17.00;99.90
2723;DHT22;1369;53.216;10.396;2022-10-15T16:19:04;17.00;99.90
2723;DHT22;1369;53.216;10.396;2022-10-15T16:21:30;16.90;99.90
2723;DHT22;1369;53.216;10.396;2022-10-15T16:23:55;16.90;99.90
2723;DHT22;1369;53.216;10.396;2022-10-15T16:26:21;16.80;99.90
2723;DHT22;1369;53.216;10.396;2022-10-15T16:28:47;16.80;99.90
2723;DHT22;1369;53.216;10.396;2022-10-15T16:31:23;16.80;99.90
2723;DHT22;1369;53.216;10.396;2022-10-15T16:33:49;16.70;99.90
2723;DHT22;1369;53.216;10.396;2022-10-15T16:36:16;16.60;99.90
2723;DHT22;1369;53.216;10.396;2022-10-15T16:38:43;16.50;99.90
2723;DHT22;1369;53.216;10.396;2022-10-15T16:41:09;16.50;99.90
2723;DHT22;1369;53.216;10.396;2022-10-15T16:43:35;16.40;99.90
2723;DHT22;1369;53.216;10.396;2022-10-15T16:46:02;16.40;99.90
2723;DHT22;1369;53.216;10.396;2022-10-15T16:48:29;16.50;99.90
2723;DHT22;1369;53.216;10.396;2022-10-15T16:51:07;16.50;99.90
2723;DHT22;1369;53.216;10.396;2022-10-15T16:53:34;16.50;99.90
2723;DHT22;1369;53.216;10.396;2022-10-15T16:56:02;16.60;99.90
2723;DHT22;1369;53.216;10.396;2022-10-15T16:58:29;16.60;99.90
2723;DHT22;1369;53.216;10.396;2022-10-15T17:01:04;16.60;99.90
2723;DHT22;1369;53.216;10.396;2022-10-15T17:03:32;16.60;99.90
2723;DHT22;1369;53.216;10.396;2022-10-15T17:05:59;16.60;99.90
2723;DHT22;1369;53.216;10.396;2022-10-15T17:08:36;16.60;99.90
2723;DHT22;1369;53.216;10.396;2022-10-15T17:11:02;16.60;99.90
2723;DHT22;1369;53.216;10.396;2022-10-15T17:13:27;16.70;99.90
2723;DHT22;1369;53.216;10.396;2022-10-15T17:15:53;16.70;99.90
2723;DHT22;1369;53.216;10.396;2022-10-15T17:18:18;16.80;99.90
2723;DHT22;1369;53.216;10.396;2022-10-15T17:20:45;16.80;99.90
2723;DHT22;1369;53.216;10.396;2022-10-15T17:23:11;16.80;99.90
2723;DHT22;1369;53.216;10.396;2022-10-15T17:25:37;16.80;99.90